Terminal Aerodrome Forecast
Issued by NWS

Home | Current Version | Previous Version | Text Only | Print | Product List | Glossary On
Versions: 1 2 3 4 5 6 7 8 9 10 11 12 13 14 15
000
FTAK31 PAJN 250523
TAFAPG
TAF
PAPG 250523Z 2506/2606 00000KT 2SM -SN SCT005 OVC012
     FM251800 VRB04KT 6SM -SHSNRA OVC025
     FM252100 VRB04KT P6SM -SHRASN SCT025 OVC040
      AMD LTD TO CLD VIS AND WIND 2506/2515=

USA.gov is the U.S. government's official web portal to all federal, state and local government web resources and services.